Relevés horaires Semmerzake (Belgique)


Relevés horaires à Semmerzake - Mardi 08 Juin 2021
Heure UTC1 Température [°C] Vent [km/h] Hum. [%] Pres.4 [hPa] Visi. [Km] Nébu. [octa] Préc.5 [mm] Cond.
2m. Res. Ros. Dir.2 Vit. Moy. Raf.3
23:00 15.0 15.0 11.9 NNO 1.9 -- 3.7 82 1023.1(0.3/3h) 7 -- -- --
22:00 15.5 15.5 11.6 NNO 1.9 -- 3.7 78 1023.1(0.6/3h) 12 -- -- --
21:00 17.0 17.0 11.9 NNO 1.9 -- 9.3 72 1023.1(0.8/3h) 14 -- -- --
20:00 18.1 18.1 11.7 NNO 3.7 -- 7.4 66 1022.7(0.6/3h) 18 -- -- --
19:00 20.0 20.0 12.2 NNO 5.6 -- 9.3 61 1022.3(0.2/3h) 16 -- -- --
18:00 21.3 21.3 11.2 NNO 7.4 -- 11.1 53 1022.1(-0.3/3h) 18 -- -- --
17:00 22.1 22.1 13.3 NNO 5.6 5.6 9.3 57 1022(-0.7/3h) 11 -- -- --
16:00 22.7 22.7 13.4 N 5.6 -- 9.3 56 1022.2(-0.6/3h) 11 -- -- --
15:00 22.8 22.8 13.7 NNO 3.7 -- 9.3 56 1022.3(-0.5/3h) 10 -- -- --
14:00 22.3 22.3 13.2 NE 3.7 -- 9.3 56 1022.7(-0.4/3h) 10 -- -- --
13:00 23.1 23.1 11.7 NNO 1.9 -- 7.4 49 1022.7(-0.4/3h) 17 -- -- --
12:00 23.0 23.0 12.6 N 3.7 -- 7.4 52 1022.8(-0.6/3h) 18 -- -- --
11:00 22.7 22.7 11.4 NNO 1.9 -- 7.4 49 1023.2(-0.6/3h) 18 -- -- --
10:00 22.9 22.9 13.3 NNO 1.9 -- 3.7 55 1023.2(-0.6/3h) 16 -- -- --
09:00 20.4 20.4 13.0 NNO 1.9 -- 3.7 62 1023.6(-0.2/3h) 14 -- -- --
08:00 19.1 19.1 12.9 NNO 1.9 -- 1.9 67 1023.8(0.3/3h) 11 -- -- --
07:00 16.5 16.5 12.6 NNO 1.9 -- 1.9 78 1024(0.5/3h) 8 -- -- --
06:00 14.4 14.4 12.2 NNO 1.9 -- 1.9 87 1023.8(0.6/3h) 7 -- -- --
05:00 12.3 12.3 11.4 NNO 1.9 -- 1.9 94 1023.7(0.5/3h) 7 -- -- --
04:00 11.6 11.6 11.1 NNO 1.9 -- 0.0 97 1023.5(0.1/3h) 4.4 -- -- Du brouillard ou du brouillard glacé (plus correctement designé sous le nom de brume) est observé et la visibilité n'est ni inférieure à 5/8 de mille ni supérieure à 6 milles
03:00 11.6 11.6 10.7 NNO 1.9 -- 0.0 94 1023.2(0.0/3h) 5 -- -- --
02:00 12.2 12.2 11.1 NNO 1.9 -- 0.0 93 1023.2(-0.1/3h) 5 -- -- --
01:00 12.4 12.4 10.7 NNO 1.9 -- 0.0 89 1023.2(0.0/3h) 13 -- -- --
00:00 13.5 13.5 10.7 NNO 1.9 -- 13.0 83 1023.2(-0.2/3h) 17 -- -- --

1 Coordinated Universal Time. Actuellement il est 05:00 locale et 03:00 UTC.

2 Le vent souffle depuis la direction indiquée vers la direction oposée.

3 Les rafales max. sont disponible 40 min après l'heure du relevé.

4 Pour les stations d'altitude (plus de 600m) le géopotentiel du niveau le plus proche de la pression obligatoire est indiqué.

5 Les stations disposant d'un diffuseur peuvent indiquer "trace". Cela signifie que des précipitations ont touchés le sol mais que la quantité est inférieure à 0.1 mm.

Récapitulatif de la journée
Température [°C] Vent [km/h] Ensoleillement4 [h] Precipitations totale5 [mm] Pression [Hpa]
Min1 Max.2 Moy.3 Max. Min Max.
11.3 24.4 5.6 13.0 0 h 0 min 0 1022.0 1024.0

1 Température minimale relevée entre 18:00 UTC la veille et 18:00 UTC le jour donné.

2 Température maximale relevée entre 06:00 UTC le jour donné et 06:00 UTC le lendemain.

3 Vent moyen de la journée basé sur les relevés horaires.

4 Ensoleillement en heures relevé entre 06:00 UTC la veille et 06:00 UTC le jour donné.

5 Précipitations totales tombées entre 06:00 UTC la jour donné et 06:00 UTC le lendemain.

Graphiques horaires